createdAt,value
2017-12-22T00:01:33.828Z,99100.80
2017-12-22T00:04:01.326Z,99092.77
2017-12-22T00:06:30.054Z,99089.41
2017-12-22T00:08:57.580Z,99089.86
2017-12-22T00:11:26.103Z,99094.50
2017-12-22T00:13:53.865Z,99084.39
2017-12-22T00:16:21.370Z,99079.31
2017-12-22T00:18:49.388Z,99081.84
2017-12-22T00:21:17.228Z,99077.20
2017-12-22T00:23:44.740Z,99080.99
2017-12-22T00:26:12.276Z,99078.87
2017-12-22T00:28:40.010Z,99071.72
2017-12-22T00:31:07.509Z,99076.78
2017-12-22T00:33:35.062Z,99071.70
2017-12-22T00:36:02.614Z,99074.70
2017-12-22T00:38:30.132Z,99062.91
2017-12-22T00:40:57.641Z,99064.59
2017-12-22T00:43:25.599Z,99057.45
2017-12-22T00:46:03.094Z,99056.20
2017-12-22T00:48:30.728Z,99056.19
2017-12-22T00:50:58.245Z,99051.14
2017-12-22T00:53:25.802Z,99048.99
2017-12-22T00:55:53.441Z,99057.02
2017-12-22T00:58:20.992Z,99048.18
2017-12-22T01:00:48.496Z,99052.38
2017-12-22T01:03:16.190Z,99050.23
2017-12-22T01:05:43.685Z,99040.98
2017-12-22T01:08:11.190Z,99035.03
2017-12-22T01:10:39.091Z,99047.66
2017-12-22T01:13:07.305Z,99038.36
2017-12-22T01:15:40.589Z,99040.02
2017-12-22T01:18:13.757Z,99044.33
2017-12-22T01:20:41.615Z,99045.22
2017-12-22T01:23:10.097Z,99037.18
2017-12-22T01:25:37.604Z,99039.23
2017-12-22T01:28:05.297Z,99038.05
2017-12-22T01:30:32.797Z,99035.95
2017-12-22T01:33:00.333Z,99041.83
2017-12-22T01:35:28.269Z,99040.17
2017-12-22T01:37:55.778Z,99041.84
2017-12-22T01:40:23.277Z,99042.26
2017-12-22T01:42:50.809Z,99038.47
2017-12-22T01:45:18.314Z,99036.78
2017-12-22T01:47:45.822Z,99034.60
2017-12-22T01:50:13.956Z,99042.22
2017-12-22T01:52:41.461Z,99028.73
2017-12-22T01:55:08.980Z,99031.22
2017-12-22T01:57:36.700Z,99033.42
2017-12-22T02:00:04.206Z,99027.97
2017-12-22T02:02:31.709Z,99028.40
2017-12-22T02:04:59.523Z,99028.83
2017-12-22T02:07:27.017Z,99027.57
2017-12-22T02:09:54.537Z,99032.63
2017-12-22T02:12:22.507Z,99030.48
2017-12-22T02:14:50.001Z,99030.09
2017-12-22T02:17:17.523Z,99030.11
2017-12-22T02:19:45.083Z,99026.30
2017-12-22T02:22:12.582Z,99025.89
2017-12-22T02:24:40.201Z,99017.42
2017-12-22T02:27:07.758Z,99024.20
2017-12-22T02:29:35.255Z,99020.38
2017-12-22T02:32:02.778Z,99018.28
2017-12-22T02:34:30.744Z,99028.42
2017-12-22T02:36:58.237Z,99015.76
2017-12-22T02:39:25.744Z,99017.45
2017-12-22T02:41:53.299Z,99019.52
2017-12-22T02:44:20.809Z,99011.55
2017-12-22T02:46:48.322Z,99013.19
2017-12-22T02:49:15.995Z,99019.97
2017-12-22T02:51:43.566Z,99005.20
2017-12-22T02:54:11.169Z,99006.06
2017-12-22T02:56:38.981Z,99006.94
2017-12-22T02:59:06.477Z,99003.97
2017-12-22T03:01:33.981Z,99007.30
2017-12-22T03:04:01.657Z,99007.77
2017-12-22T03:06:29.157Z,99003.59
2017-12-22T03:08:56.675Z,98998.12
2017-12-22T03:11:24.231Z,98990.52
2017-12-22T03:13:51.733Z,98991.78
2017-12-22T03:16:19.248Z,98987.52
2017-12-22T03:18:46.928Z,98979.13
2017-12-22T03:21:14.468Z,98976.19
2017-12-22T03:23:41.971Z,98980.41
2017-12-22T03:26:09.689Z,98983.39
2017-12-22T03:28:37.248Z,98986.73
2017-12-22T03:31:04.746Z,98979.16
2017-12-22T03:33:32.305Z,98981.25
2017-12-22T03:35:59.801Z,98973.22
2017-12-22T03:38:27.405Z,98972.78
2017-12-22T03:40:54.938Z,98971.90
2017-12-22T03:43:22.434Z,98968.94
2017-12-22T03:45:49.934Z,98971.54
2017-12-22T03:48:17.517Z,98964.80
2017-12-22T03:50:45.018Z,98965.94
2017-12-22T03:53:12.524Z,98964.63
2017-12-22T03:55:40.065Z,98966.30
2017-12-22T03:58:07.570Z,98969.27
2017-12-22T04:00:35.108Z,98970.16
2017-12-22T04:03:02.665Z,98967.14
2017-12-22T04:05:30.170Z,98962.08
2017-12-22T04:07:57.680Z,98954.94
2017-12-22T04:10:25.368Z,98953.73
2017-12-22T04:12:52.881Z,98952.45
2017-12-22T04:15:20.386Z,98954.14
2017-12-22T04:17:47.937Z,98954.24
2017-12-22T04:20:15.477Z,98954.59
2017-12-22T04:22:43.039Z,98951.70
2017-12-22T04:25:10.538Z,98955.52
2017-12-22T04:27:38.046Z,98951.64
2017-12-22T04:30:05.554Z,98949.06
2017-12-22T04:32:33.241Z,98948.20
2017-12-22T04:35:00.741Z,98950.31
2017-12-22T04:37:28.289Z,98949.55
2017-12-22T04:39:56.019Z,98945.72
2017-12-22T04:42:23.527Z,98943.61
2017-12-22T04:44:51.025Z,98950.79
2017-12-22T04:47:18.831Z,98944.09
2017-12-22T04:49:46.493Z,98947.88
2017-12-22T04:52:14.201Z,98951.69
2017-12-22T04:54:42.141Z,98947.95
2017-12-22T04:57:09.683Z,98947.16
2017-12-22T04:59:37.190Z,98949.29
2017-12-22T05:02:04.902Z,98949.27
2017-12-22T05:04:32.409Z,98948.47
2017-12-22T05:06:59.925Z,98945.95
2017-12-22T05:09:27.785Z,98941.33
2017-12-22T05:11:55.293Z,98945.06
2017-12-22T05:14:22.829Z,98947.22
2017-12-22T05:16:50.366Z,98948.92
2017-12-22T05:19:17.920Z,98943.00
2017-12-22T05:21:45.432Z,98949.30
2017-12-22T05:24:13.061Z,98948.91
2017-12-22T05:26:40.596Z,98946.80
2017-12-22T05:29:08.102Z,98946.39
2017-12-22T05:31:35.662Z,98943.87
2017-12-22T05:34:03.173Z,98941.37
2017-12-22T05:36:30.733Z,98944.30
2017-12-22T05:38:58.426Z,98944.73
2017-12-22T05:41:25.956Z,98944.73
2017-12-22T05:43:53.528Z,98947.23
2017-12-22T05:46:22.298Z,98934.18
2017-12-22T05:48:50.369Z,98939.66
2017-12-22T05:51:17.885Z,98932.09
2017-12-22T05:53:45.591Z,98936.72
2017-12-22T05:56:13.168Z,98934.19
2017-12-22T05:58:40.707Z,98930.86
2017-12-22T06:01:08.471Z,98928.33
2017-12-22T06:03:35.978Z,98932.95
2017-12-22T06:06:03.486Z,98927.88
2017-12-22T06:08:31.041Z,98922.00
2017-12-22T06:10:58.544Z,98921.53
2017-12-22T06:13:26.049Z,98922.84
2017-12-22T06:15:53.826Z,98922.00
2017-12-22T06:18:21.388Z,98923.25
2017-12-22T06:20:48.898Z,98924.47
2017-12-22T06:23:16.580Z,98918.91
2017-12-22T06:25:44.118Z,98925.67
2017-12-22T06:28:11.633Z,98925.72
2017-12-22T06:30:39.179Z,98922.76
2017-12-22T06:33:06.866Z,98920.22
2017-12-22T06:35:34.401Z,98922.42
2017-12-22T06:38:02.119Z,98924.95
2017-12-22T06:40:29.621Z,98928.28
2017-12-22T06:42:57.125Z,98925.75
2017-12-22T06:45:24.669Z,98922.81
2017-12-22T06:47:52.177Z,98919.06
2017-12-22T06:50:19.690Z,98920.74
2017-12-22T06:52:47.398Z,98918.13
2017-12-22T06:55:14.907Z,98917.81
2017-12-22T06:57:42.433Z,98913.17
2017-12-22T07:00:10.402Z,98912.75
2017-12-22T07:02:37.910Z,98911.50
2017-12-22T07:05:05.425Z,98901.84
2017-12-22T07:07:32.975Z,98901.83
2017-12-22T07:10:00.481Z,98905.60
2017-12-22T07:12:27.997Z,98906.88
2017-12-22T07:14:55.557Z,98911.91
2017-12-22T07:17:23.112Z,98907.27
2017-12-22T07:19:50.670Z,98906.02
2017-12-22T07:22:18.432Z,98901.79
2017-12-22T07:24:45.932Z,98910.64
2017-12-22T07:27:13.466Z,98909.31
2017-12-22T07:29:41.046Z,98914.42
2017-12-22T07:32:08.552Z,98912.27
2017-12-22T07:34:36.061Z,98912.73
2017-12-22T07:37:03.787Z,98911.03
2017-12-22T07:39:31.304Z,98910.61
2017-12-22T07:41:58.906Z,98906.27
2017-12-22T07:44:26.803Z,98910.59
2017-12-22T07:46:54.331Z,98902.20
2017-12-22T07:49:21.842Z,98900.05
2017-12-22T07:51:49.392Z,98908.09
2017-12-22T07:54:17.008Z,98902.53
2017-12-22T07:56:44.568Z,98895.88
2017-12-22T07:59:12.299Z,98899.67
2017-12-22T08:01:39.808Z,98902.22
2017-12-22T08:04:07.304Z,98903.45
2017-12-22T08:06:35.735Z,98910.54
2017-12-22T08:09:03.241Z,98905.91
2017-12-22T08:11:30.750Z,98908.34
2017-12-22T08:13:58.286Z,98900.79
2017-12-22T08:16:25.790Z,98902.21
2017-12-22T08:18:53.349Z,98907.14
2017-12-22T08:21:21.059Z,98903.81
2017-12-22T08:23:48.561Z,98902.34
2017-12-22T08:26:16.095Z,98912.61
2017-12-22T08:28:43.637Z,98907.12
2017-12-22T08:31:11.146Z,98910.92
2017-12-22T08:33:38.656Z,98909.13
2017-12-22T08:36:06.309Z,98912.86
2017-12-22T08:38:33.810Z,98912.86
2017-12-22T08:41:01.321Z,98917.25
2017-12-22T08:43:28.935Z,98922.24
2017-12-22T08:45:56.467Z,98922.72
2017-12-22T08:48:23.969Z,98919.78
2017-12-22T08:50:51.994Z,98920.56
2017-12-22T08:53:19.500Z,98922.22
2017-12-22T08:55:47.018Z,98923.54
2017-12-22T08:58:14.773Z,98923.02
2017-12-22T09:00:42.277Z,98926.44
2017-12-22T09:03:09.895Z,98925.09
2017-12-22T09:05:37.656Z,98919.48
2017-12-22T09:08:05.216Z,98930.62
2017-12-22T09:10:32.722Z,98934.75
2017-12-22T09:13:00.648Z,98938.83
2017-12-22T09:15:28.154Z,98945.06
2017-12-22T09:17:55.661Z,98942.37
2017-12-22T09:20:23.598Z,98939.56
2017-12-22T09:22:51.199Z,98945.33
2017-12-22T09:25:18.701Z,98944.89
2017-12-22T09:27:46.236Z,98951.00
2017-12-22T09:30:13.762Z,98944.16
2017-12-22T09:32:41.318Z,98938.73
2017-12-22T09:35:08.857Z,98936.20
2017-12-22T09:37:36.386Z,98931.16
2017-12-22T09:40:03.921Z,98930.67
2017-12-22T09:42:31.462Z,98931.03
2017-12-22T09:44:59.012Z,98929.62
2017-12-22T09:47:26.572Z,98925.88
2017-12-22T09:49:54.232Z,98924.25
2017-12-22T09:52:21.733Z,98921.56
2017-12-22T09:54:49.352Z,98922.80
2017-12-22T09:57:17.088Z,98929.00
2017-12-22T09:59:44.622Z,98925.42
2017-12-22T10:02:12.128Z,98932.13
2017-12-22T10:04:39.899Z,98928.56
2017-12-22T10:07:07.476Z,98928.78
2017-12-22T10:09:34.993Z,98933.54
2017-12-22T10:12:02.776Z,98925.48
2017-12-22T10:14:30.363Z,98927.02
2017-12-22T10:16:57.868Z,98929.41
2017-12-22T10:19:25.417Z,98928.71
2017-12-22T10:21:52.930Z,98923.94
2017-12-22T10:24:20.439Z,98919.16
2017-12-22T10:26:48.232Z,98922.65
2017-12-22T10:29:15.741Z,98921.06
2017-12-22T10:31:43.249Z,98920.14
2017-12-22T10:34:10.910Z,98912.23
2017-12-22T10:36:38.415Z,98913.23
2017-12-22T10:39:05.946Z,98912.56
2017-12-22T10:41:33.691Z,98904.67
2017-12-22T10:44:01.250Z,98905.63
2017-12-22T10:46:28.758Z,98898.50
2017-12-22T10:48:56.368Z,98900.88
2017-12-22T10:51:23.879Z,98902.80
2017-12-22T10:53:51.479Z,98901.43
2017-12-22T10:56:19.029Z,98900.20
2017-12-22T10:58:46.549Z,98892.38
2017-12-22T11:01:14.061Z,98886.15
2017-12-22T11:03:41.802Z,98894.36
2017-12-22T11:06:09.320Z,98886.03
2017-12-22T11:08:36.849Z,98893.83
2017-12-22T11:11:04.707Z,98881.01
2017-12-22T11:13:32.277Z,98879.32
2017-12-22T11:15:59.778Z,98877.99
2017-12-22T11:18:27.426Z,98879.61
2017-12-22T11:20:55.007Z,98879.60
2017-12-22T11:23:22.518Z,98876.42
2017-12-22T11:25:50.097Z,98870.56
2017-12-22T11:28:17.622Z,98872.11
2017-12-22T11:30:45.135Z,98868.16
2017-12-22T11:33:12.943Z,98871.34
2017-12-22T11:35:40.499Z,98870.59
2017-12-22T11:38:07.986Z,98870.82
2017-12-22T11:40:35.681Z,98866.79
2017-12-22T11:43:03.197Z,98866.00
2017-12-22T11:45:31.660Z,98870.39
2017-12-22T11:47:59.237Z,98875.89
2017-12-22T11:50:26.777Z,98872.24
2017-12-22T11:52:54.289Z,98879.97
2017-12-22T11:55:21.823Z,98874.83
2017-12-22T11:57:49.354Z,98877.08
2017-12-22T12:00:16.959Z,98876.89
2017-12-22T12:02:45.191Z,98864.50
2017-12-22T12:05:12.712Z,98866.63
2017-12-22T12:07:40.225Z,98865.36
2017-12-22T12:10:07.967Z,98864.61
2017-12-22T12:12:35.531Z,98865.21
2017-12-22T12:15:03.085Z,98864.87
2017-12-22T12:17:30.752Z,98863.52
2017-12-22T12:19:58.299Z,98850.18
2017-12-22T12:22:25.857Z,98844.56
2017-12-22T12:24:53.734Z,98841.90
2017-12-22T12:27:21.299Z,98839.16
2017-12-22T12:29:48.959Z,98841.72
2017-12-22T12:32:16.940Z,98836.39
2017-12-22T12:34:44.685Z,98833.28
2017-12-22T12:37:12.449Z,98837.61
2017-12-22T12:39:40.216Z,98835.02
2017-12-22T12:42:08.694Z,98836.77
2017-12-22T12:44:36.252Z,98826.92
2017-12-22T12:47:03.938Z,98842.77
2017-12-22T12:49:31.483Z,98844.09
2017-12-22T12:51:59.035Z,98856.26
2017-12-22T12:54:26.611Z,98866.00
2017-12-22T12:56:54.133Z,98869.22
2017-12-22T12:59:21.812Z,98859.86
2017-12-22T13:01:49.406Z,98850.16
2017-12-22T13:04:17.362Z,98851.19
2017-12-22T13:06:44.886Z,98869.28
2017-12-22T13:09:12.470Z,98867.84
2017-12-22T13:11:40.024Z,98870.32
2017-12-22T13:14:07.567Z,98871.92
2017-12-22T13:16:35.245Z,98876.80
2017-12-22T13:19:02.839Z,98865.67
2017-12-22T13:21:30.403Z,98863.78
2017-12-22T13:23:58.939Z,98863.73
2017-12-22T13:26:26.445Z,98864.94
2017-12-22T13:28:53.966Z,98867.50
2017-12-22T13:31:21.531Z,98867.92
2017-12-22T13:33:49.053Z,98867.73
2017-12-22T13:36:16.561Z,98867.84
2017-12-22T13:38:44.395Z,98864.13
2017-12-22T13:41:11.955Z,98869.77
2017-12-22T13:43:39.460Z,98869.66
2017-12-22T13:46:07.023Z,98870.42
2017-12-22T13:48:34.538Z,98872.29
2017-12-22T13:51:03.012Z,98874.25
2017-12-22T13:53:30.753Z,98880.59
2017-12-22T13:55:58.435Z,98881.83
2017-12-22T13:58:25.950Z,98883.99
2017-12-22T14:00:53.730Z,98881.72
2017-12-22T14:03:21.317Z,98881.23
2017-12-22T14:05:48.857Z,98883.16
2017-12-22T14:08:16.618Z,98885.77
2017-12-22T14:10:44.133Z,98877.78
2017-12-22T14:13:11.910Z,98875.13
2017-12-22T14:15:39.466Z,98871.95
2017-12-22T14:18:06.984Z,98873.93
2017-12-22T14:20:34.484Z,98872.33
2017-12-22T14:23:02.306Z,98869.30
2017-12-22T14:25:29.865Z,98879.56
2017-12-22T14:27:57.523Z,98880.70
2017-12-22T14:30:25.085Z,98890.13
2017-12-22T14:32:52.687Z,98888.82
2017-12-22T14:35:20.234Z,98882.73
2017-12-22T14:37:47.811Z,98881.89
2017-12-22T14:40:15.314Z,98881.68
2017-12-22T14:42:42.817Z,98895.00
2017-12-22T14:45:10.948Z,98893.73
2017-12-22T14:47:38.825Z,98898.03
2017-12-22T14:50:06.628Z,98903.45
2017-12-22T14:52:34.193Z,98905.60
2017-12-22T14:55:01.704Z,98911.89
2017-12-22T14:57:29.215Z,98909.98
2017-12-22T14:59:56.897Z,98903.06
2017-12-22T15:02:24.417Z,98902.22
2017-12-22T15:04:51.939Z,98904.21
2017-12-22T15:07:19.879Z,98903.89
2017-12-22T15:09:47.386Z,98903.33
2017-12-22T15:12:14.895Z,98904.70
2017-12-22T15:14:42.475Z,98908.58
2017-12-22T15:17:10.003Z,98906.33
2017-12-22T15:19:37.531Z,98904.91
2017-12-22T15:22:05.320Z,98911.33
2017-12-22T15:24:32.830Z,98911.89
2017-12-22T15:27:00.387Z,98908.12
2017-12-22T15:29:28.087Z,98910.13
2017-12-22T15:31:55.613Z,98905.48
2017-12-22T15:34:23.123Z,98914.03
2017-12-22T15:36:50.713Z,98919.03
2017-12-22T15:39:18.218Z,98913.72
2017-12-22T15:41:45.728Z,98931.55
2017-12-22T15:44:13.491Z,98927.98
2017-12-22T15:46:41.076Z,98930.44
2017-12-22T15:49:08.611Z,98939.00
2017-12-22T15:51:36.166Z,98943.50
2017-12-22T15:54:03.730Z,98942.23
2017-12-22T15:56:31.288Z,98938.54
2017-12-22T15:58:59.075Z,98941.11
2017-12-22T16:01:26.580Z,98943.54
2017-12-22T16:03:54.147Z,98949.42
2017-12-22T16:06:21.805Z,98962.39
2017-12-22T16:08:51.335Z,98956.77
2017-12-22T16:11:20.367Z,98964.80
2017-12-22T16:13:51.167Z,98967.33
2017-12-22T16:16:18.830Z,98961.48
2017-12-22T16:18:46.695Z,98964.73
2017-12-22T16:21:15.003Z,98968.23
2017-12-22T16:23:42.716Z,98965.16
2017-12-22T16:26:10.294Z,98963.02
2017-12-22T16:28:38.982Z,98969.44
2017-12-22T16:31:06.487Z,98967.33
2017-12-22T16:33:34.094Z,98970.68
2017-12-22T16:36:02.111Z,98972.43
2017-12-22T16:38:29.638Z,98972.91
2017-12-22T16:40:57.184Z,98966.09
2017-12-22T16:43:25.151Z,98972.95
2017-12-22T16:45:52.710Z,98972.09
2017-12-22T16:48:20.371Z,98975.53
2017-12-22T16:50:47.951Z,98967.88
2017-12-22T16:53:15.901Z,98972.09
2017-12-22T16:55:43.565Z,98973.36
2017-12-22T16:58:15.246Z,98971.95
2017-12-22T17:03:20.371Z,98984.80
2017-12-22T17:05:50.918Z,98985.25
2017-12-22T17:08:18.974Z,98981.39
2017-12-22T17:10:48.227Z,98984.65
2017-12-22T17:13:16.033Z,98982.74
2017-12-22T17:15:44.925Z,98978.38
2017-12-22T17:18:16.325Z,98983.05
2017-12-22T17:20:47.424Z,98987.22
2017-12-22T17:23:17.137Z,98991.92
2017-12-22T17:25:45.813Z,98992.88
2017-12-22T17:28:13.737Z,99000.42
2017-12-22T17:30:41.824Z,99002.14
2017-12-22T17:33:09.824Z,98997.50
2017-12-22T17:35:38.416Z,99006.25
2017-12-22T17:38:07.091Z,99001.75
2017-12-22T17:40:37.112Z,99003.83
2017-12-22T17:43:05.242Z,99006.05
2017-12-22T17:45:33.662Z,99002.87
2017-12-22T17:48:01.436Z,99007.06
2017-12-22T17:50:34.883Z,99015.94
2017-12-22T17:53:04.940Z,99011.23
2017-12-22T17:55:33.943Z,99012.98
2017-12-22T18:00:44.663Z,99013.83
2017-12-22T18:03:33.160Z,99010.98
2017-12-22T18:06:02.294Z,99019.41
2017-12-22T18:08:31.356Z,99021.86
2017-12-22T18:11:14.899Z,99022.22
2017-12-22T18:13:42.757Z,99026.86
2017-12-22T18:16:13.080Z,99025.63
2017-12-22T18:18:42.881Z,99025.54
2017-12-22T18:21:12.805Z,99028.86
2017-12-22T18:23:45.667Z,99025.54
2017-12-22T18:26:14.968Z,99031.84
2017-12-22T18:28:43.497Z,99038.64
2017-12-22T18:31:13.407Z,99038.27
2017-12-22T18:33:42.383Z,99037.88
2017-12-22T18:36:10.780Z,99042.50
2017-12-22T18:38:38.625Z,99041.31
2017-12-22T18:41:16.943Z,99042.10
2017-12-22T18:43:45.727Z,99045.81
2017-12-22T18:46:14.381Z,99039.05
2017-12-22T18:48:44.426Z,99051.25
2017-12-22T18:51:15.670Z,99047.06
2017-12-22T18:56:22.069Z,99042.92
2017-12-22T18:58:53.176Z,99039.36
2017-12-22T19:01:22.009Z,99043.25
2017-12-22T19:03:52.747Z,99048.83
2017-12-22T19:06:22.123Z,99055.22
2017-12-22T19:08:50.666Z,99060.09
2017-12-22T19:11:19.905Z,99064.30
2017-12-22T19:13:47.835Z,99068.16
2017-12-22T19:16:17.685Z,99069.00
2017-12-22T19:18:45.447Z,99073.25
2017-12-22T19:21:13.826Z,99076.22
2017-12-22T19:23:41.795Z,99070.77
2017-12-22T19:26:09.824Z,99075.64
2017-12-22T19:28:37.666Z,99077.00
2017-12-22T19:31:05.704Z,99079.53
2017-12-22T19:33:33.703Z,99075.62
2017-12-22T19:36:01.846Z,99082.52
2017-12-22T19:38:30.357Z,99080.44
2017-12-22T19:40:58.499Z,99069.42
2017-12-22T19:43:26.472Z,99077.48
2017-12-22T19:45:54.435Z,99090.55
2017-12-22T19:48:26.715Z,99090.58
2017-12-22T19:50:54.324Z,99082.86
2017-12-22T19:53:21.918Z,99078.22
2017-12-22T19:55:50.776Z,99066.89
2017-12-22T19:58:18.783Z,99069.95
2017-12-22T20:00:47.063Z,99061.03
2017-12-22T20:03:26.910Z,99061.11
2017-12-22T20:05:55.106Z,99067.00
2017-12-22T20:08:24.699Z,99066.05
2017-12-22T20:10:53.592Z,99062.69
2017-12-22T20:13:23.375Z,99058.32
2017-12-22T20:15:51.887Z,99065.56
2017-12-22T20:18:20.127Z,99062.19
2017-12-22T20:20:48.034Z,99070.21
2017-12-22T20:23:16.225Z,99074.16
2017-12-22T20:25:44.608Z,99076.63
2017-12-22T20:28:15.841Z,99073.73
2017-12-22T20:30:45.200Z,99076.97
2017-12-22T20:33:13.814Z,99079.62
2017-12-22T20:35:42.620Z,99080.36
2017-12-22T20:38:11.365Z,99089.70
2017-12-22T20:40:42.304Z,99087.98
2017-12-22T20:43:11.060Z,99089.81
2017-12-22T20:45:40.098Z,99100.33
2017-12-22T20:48:08.491Z,99102.37
2017-12-22T20:50:37.568Z,99101.16
2017-12-22T20:53:06.151Z,99100.64
2017-12-22T20:55:34.123Z,99103.52
2017-12-22T20:58:02.420Z,99102.06
2017-12-22T21:00:30.370Z,99091.70
2017-12-22T21:02:58.822Z,99098.60
2017-12-22T21:05:27.751Z,99109.41
2017-12-22T21:07:55.708Z,99106.44
2017-12-22T21:10:23.782Z,99110.91
2017-12-22T21:12:52.157Z,99119.60
2017-12-22T21:15:19.920Z,99111.94
2017-12-22T21:17:49.771Z,99111.88
2017-12-22T21:20:18.928Z,99118.78
2017-12-22T21:22:46.840Z,99119.48
2017-12-22T21:25:14.872Z,99123.80
2017-12-22T21:27:43.865Z,99115.77
2017-12-22T21:30:11.535Z,99123.06
2017-12-22T21:32:39.593Z,99129.27
2017-12-22T21:35:08.932Z,99134.25
2017-12-22T21:37:36.476Z,99131.88
2017-12-22T21:40:04.925Z,99136.53
2017-12-22T21:42:32.664Z,99138.48
2017-12-22T21:45:01.020Z,99143.16
2017-12-22T21:47:28.882Z,99133.89
2017-12-22T21:49:56.811Z,99141.00
2017-12-22T21:52:24.778Z,99143.08
2017-12-22T21:54:52.541Z,99144.41
2017-12-22T21:57:21.229Z,99145.36
2017-12-22T21:59:49.811Z,99137.89
2017-12-22T22:02:17.678Z,99135.62
2017-12-22T22:04:46.361Z,99128.78
2017-12-22T22:07:14.769Z,99128.31
2017-12-22T22:09:43.942Z,99126.17
2017-12-22T22:12:12.823Z,99124.87
2017-12-22T22:14:40.896Z,99130.14
2017-12-22T22:17:08.766Z,99133.41
2017-12-22T22:19:38.303Z,99130.64
2017-12-22T22:22:07.139Z,99128.53
2017-12-22T22:24:35.851Z,99122.00
2017-12-22T22:27:05.602Z,99128.50
2017-12-22T22:29:33.324Z,99127.61
2017-12-22T22:32:00.985Z,99127.55
2017-12-22T22:34:28.823Z,99127.58
2017-12-22T22:36:56.390Z,99125.02
2017-12-22T22:39:24.378Z,99131.34
2017-12-22T22:41:52.739Z,99130.59
2017-12-22T22:44:20.893Z,99132.56
2017-12-22T22:46:48.989Z,99145.78
2017-12-22T22:49:17.071Z,99142.73
2017-12-22T22:51:45.043Z,99146.17
2017-12-22T22:54:13.834Z,99142.68
2017-12-22T22:56:41.488Z,99151.25
2017-12-22T22:59:09.104Z,99150.38
2017-12-22T23:01:36.847Z,99152.48
2017-12-22T23:04:04.450Z,99159.20
2017-12-22T23:06:31.965Z,99168.90
2017-12-22T23:08:59.555Z,99157.71
2017-12-22T23:11:27.368Z,99152.12
2017-12-22T23:13:54.894Z,99160.59
2017-12-22T23:16:22.402Z,99158.43
2017-12-22T23:18:50.036Z,99163.11
2017-12-22T23:21:17.549Z,99164.77
2017-12-22T23:23:45.066Z,99160.91
2017-12-22T23:26:12.889Z,99161.76
2017-12-22T23:28:40.478Z,99153.86
2017-12-22T23:31:07.989Z,99153.75
2017-12-22T23:33:35.546Z,99147.05
2017-12-22T23:36:03.974Z,99141.95
2017-12-22T23:38:31.477Z,99145.36
2017-12-22T23:40:59.165Z,99145.30
2017-12-22T23:43:26.685Z,99140.17
2017-12-22T23:45:54.190Z,99140.17
2017-12-22T23:48:21.877Z,99141.81
2017-12-22T23:50:49.377Z,99141.33
2017-12-22T23:53:16.886Z,99132.96
2017-12-22T23:55:44.621Z,99132.52
2017-12-22T23:58:12.130Z,99134.26
